sensor_id;sensor_type;location;lat;lon;timestamp;P1;durP1;ratioP1;P2;durP2;ratioP2
2784;SDS011;57944;48.722;9.316;2023-07-24T00:00:16;14.13;;;7.93;;
2784;SDS011;57944;48.722;9.316;2023-07-24T00:02:47;11.87;;;7.90;;
2784;SDS011;57944;48.722;9.316;2023-07-24T00:05:17;17.20;;;8.43;;
2784;SDS011;57944;48.722;9.316;2023-07-24T00:07:47;16.50;;;9.00;;
2784;SDS011;57944;48.722;9.316;2023-07-24T00:10:20;18.07;;;10.70;;
2784;SDS011;57944;48.722;9.316;2023-07-24T00:12:51;20.13;;;11.37;;
2784;SDS011;57944;48.722;9.316;2023-07-24T00:15:21;15.57;;;8.97;;
2784;SDS011;57944;48.722;9.316;2023-07-24T00:17:52;16.33;;;9.70;;
2784;SDS011;57944;48.722;9.316;2023-07-24T00:20:22;15.87;;;9.50;;
2784;SDS011;57944;48.722;9.316;2023-07-24T00:22:54;13.50;;;9.20;;
2784;SDS011;57944;48.722;9.316;2023-07-24T00:25:26;19.40;;;10.77;;
2784;SDS011;57944;48.722;9.316;2023-07-24T00:27:57;15.23;;;8.67;;
2784;SDS011;57944;48.722;9.316;2023-07-24T00:30:27;15.20;;;9.50;;
2784;SDS011;57944;48.722;9.316;2023-07-24T00:32:57;14.40;;;8.60;;
2784;SDS011;57944;48.722;9.316;2023-07-24T00:35:28;19.53;;;10.20;;
2784;SDS011;57944;48.722;9.316;2023-07-24T00:37:58;13.73;;;8.43;;
2784;SDS011;57944;48.722;9.316;2023-07-24T00:40:31;15.67;;;8.73;;
2784;SDS011;57944;48.722;9.316;2023-07-24T00:43:01;15.40;;;8.77;;
2784;SDS011;57944;48.722;9.316;2023-07-24T00:45:31;16.37;;;8.83;;
2784;SDS011;57944;48.722;9.316;2023-07-24T00:48:03;12.63;;;8.30;;
2784;SDS011;57944;48.722;9.316;2023-07-24T00:50:37;13.50;;;8.87;;
2784;SDS011;57944;48.722;9.316;2023-07-24T00:53:08;12.47;;;8.67;;
2784;SDS011;57944;48.722;9.316;2023-07-24T00:55:43;16.30;;;9.27;;
2784;SDS011;57944;48.722;9.316;2023-07-24T00:58:16;16.87;;;8.37;;
2784;SDS011;57944;48.722;9.316;2023-07-24T01:00:48;14.23;;;8.90;;
2784;SDS011;57944;48.722;9.316;2023-07-24T01:03:19;16.00;;;9.40;;
2784;SDS011;57944;48.722;9.316;2023-07-24T01:05:54;16.57;;;8.27;;
2784;SDS011;57944;48.722;9.316;2023-07-24T01:08:25;15.00;;;8.90;;
2784;SDS011;57944;48.722;9.316;2023-07-24T01:11:01;15.43;;;8.77;;
2784;SDS011;57944;48.722;9.316;2023-07-24T01:13:42;14.20;;;8.83;;
2784;SDS011;57944;48.722;9.316;2023-07-24T01:16:21;14.10;;;8.83;;
2784;SDS011;57944;48.722;9.316;2023-07-24T01:18:58;17.83;;;10.27;;
2784;SDS011;57944;48.722;9.316;2023-07-24T01:21:33;13.77;;;8.93;;
2784;SDS011;57944;48.722;9.316;2023-07-24T01:24:23;13.60;;;9.03;;
2784;SDS011;57944;48.722;9.316;2023-07-24T01:27:09;17.30;;;9.70;;
2784;SDS011;57944;48.722;9.316;2023-07-24T01:29:39;13.53;;;9.60;;
2784;SDS011;57944;48.722;9.316;2023-07-24T01:32:09;13.80;;;8.83;;
2784;SDS011;57944;48.722;9.316;2023-07-24T01:34:40;15.30;;;8.17;;
2784;SDS011;57944;48.722;9.316;2023-07-24T01:37:11;15.63;;;9.20;;
2784;SDS011;57944;48.722;9.316;2023-07-24T01:39:43;15.90;;;9.13;;
2784;SDS011;57944;48.722;9.316;2023-07-24T01:42:17;15.87;;;9.10;;
2784;SDS011;57944;48.722;9.316;2023-07-24T01:44:50;15.27;;;9.23;;
2784;SDS011;57944;48.722;9.316;2023-07-24T01:47:21;20.10;;;9.40;;
2784;SDS011;57944;48.722;9.316;2023-07-24T01:49:52;16.07;;;9.00;;
2784;SDS011;57944;48.722;9.316;2023-07-24T01:52:22;13.27;;;9.67;;
2784;SDS011;57944;48.722;9.316;2023-07-24T01:54:53;14.00;;;8.77;;
2784;SDS011;57944;48.722;9.316;2023-07-24T01:57:26;15.07;;;9.43;;
2784;SDS011;57944;48.722;9.316;2023-07-24T01:59:56;13.77;;;8.83;;
2784;SDS011;57944;48.722;9.316;2023-07-24T02:02:26;16.80;;;9.60;;
2784;SDS011;57944;48.722;9.316;2023-07-24T02:04:57;13.97;;;8.20;;
2784;SDS011;57944;48.722;9.316;2023-07-24T02:07:27;13.90;;;9.17;;
2784;SDS011;57944;48.722;9.316;2023-07-24T02:09:58;14.53;;;7.70;;
2784;SDS011;57944;48.722;9.316;2023-07-24T02:12:31;13.70;;;9.10;;
2784;SDS011;57944;48.722;9.316;2023-07-24T02:15:01;13.67;;;8.57;;
2784;SDS011;57944;48.722;9.316;2023-07-24T02:17:32;17.70;;;9.03;;
2784;SDS011;57944;48.722;9.316;2023-07-24T02:20:02;16.93;;;9.27;;
2784;SDS011;57944;48.722;9.316;2023-07-24T02:22:34;13.47;;;9.10;;
2784;SDS011;57944;48.722;9.316;2023-07-24T02:25:05;15.43;;;9.20;;
2784;SDS011;57944;48.722;9.316;2023-07-24T02:27:39;21.87;;;9.13;;
2784;SDS011;57944;48.722;9.316;2023-07-24T02:30:10;16.30;;;10.43;;
2784;SDS011;57944;48.722;9.316;2023-07-24T02:32:41;14.13;;;8.60;;
2784;SDS011;57944;48.722;9.316;2023-07-24T02:35:11;12.57;;;7.43;;
2784;SDS011;57944;48.722;9.316;2023-07-24T02:37:44;16.07;;;8.03;;
2784;SDS011;57944;48.722;9.316;2023-07-24T02:40:14;15.50;;;9.13;;
2784;SDS011;57944;48.722;9.316;2023-07-24T02:42:48;14.33;;;8.60;;
2784;SDS011;57944;48.722;9.316;2023-07-24T02:45:19;13.70;;;8.23;;
2784;SDS011;57944;48.722;9.316;2023-07-24T02:47:49;16.90;;;10.37;;
2784;SDS011;57944;48.722;9.316;2023-07-24T02:50:19;13.93;;;7.83;;
2784;SDS011;57944;48.722;9.316;2023-07-24T02:52:49;16.17;;;7.60;;
2784;SDS011;57944;48.722;9.316;2023-07-24T02:55:20;14.27;;;8.83;;
2784;SDS011;57944;48.722;9.316;2023-07-24T02:57:53;15.40;;;8.40;;
2784;SDS011;57944;48.722;9.316;2023-07-24T03:00:23;13.43;;;8.30;;
2784;SDS011;57944;48.722;9.316;2023-07-24T03:02:54;14.83;;;8.87;;
2784;SDS011;57944;48.722;9.316;2023-07-24T03:05:24;13.63;;;8.50;;
2784;SDS011;57944;48.722;9.316;2023-07-24T03:07:54;15.17;;;8.50;;
2784;SDS011;57944;48.722;9.316;2023-07-24T03:10:25;15.80;;;8.70;;
2784;SDS011;57944;48.722;9.316;2023-07-24T03:12:58;14.43;;;7.60;;
2784;SDS011;57944;48.722;9.316;2023-07-24T03:15:28;14.10;;;9.60;;
2784;SDS011;57944;48.722;9.316;2023-07-24T03:17:59;12.10;;;7.53;;
2784;SDS011;57944;48.722;9.316;2023-07-24T03:20:30;14.43;;;8.30;;
2784;SDS011;57944;48.722;9.316;2023-07-24T03:23:00;15.27;;;10.20;;
2784;SDS011;57944;48.722;9.316;2023-07-24T03:25:30;13.37;;;8.67;;
2784;SDS011;57944;48.722;9.316;2023-07-24T03:28:05;14.97;;;9.27;;
2784;SDS011;57944;48.722;9.316;2023-07-24T03:30:35;25.70;;;8.73;;
2784;SDS011;57944;48.722;9.316;2023-07-24T03:33:05;13.37;;;8.30;;
2784;SDS011;57944;48.722;9.316;2023-07-24T03:35:36;14.57;;;8.20;;
2784;SDS011;57944;48.722;9.316;2023-07-24T03:38:06;17.87;;;8.70;;
2784;SDS011;57944;48.722;9.316;2023-07-24T03:40:36;15.87;;;8.90;;
2784;SDS011;57944;48.722;9.316;2023-07-24T03:43:09;15.43;;;8.67;;
2784;SDS011;57944;48.722;9.316;2023-07-24T03:45:39;13.73;;;8.40;;
2784;SDS011;57944;48.722;9.316;2023-07-24T03:48:10;12.10;;;8.00;;
2784;SDS011;57944;48.722;9.316;2023-07-24T03:50:40;14.47;;;8.53;;
2784;SDS011;57944;48.722;9.316;2023-07-24T03:53:11;16.23;;;8.97;;
2784;SDS011;57944;48.722;9.316;2023-07-24T03:55:41;13.77;;;8.63;;
2784;SDS011;57944;48.722;9.316;2023-07-24T03:58:14;16.10;;;9.20;;
2784;SDS011;57944;48.722;9.316;2023-07-24T04:00:45;16.50;;;9.80;;
2784;SDS011;57944;48.722;9.316;2023-07-24T04:03:16;17.57;;;8.93;;
2784;SDS011;57944;48.722;9.316;2023-07-24T04:05:46;15.20;;;9.00;;
2784;SDS011;57944;48.722;9.316;2023-07-24T04:08:16;18.20;;;8.83;;
2784;SDS011;57944;48.722;9.316;2023-07-24T04:10:47;16.70;;;9.10;;
2784;SDS011;57944;48.722;9.316;2023-07-24T04:13:20;15.30;;;8.60;;
2784;SDS011;57944;48.722;9.316;2023-07-24T04:15:50;16.00;;;10.07;;
2784;SDS011;57944;48.722;9.316;2023-07-24T04:18:20;12.27;;;8.00;;
2784;SDS011;57944;48.722;9.316;2023-07-24T04:20:50;17.07;;;9.43;;
2784;SDS011;57944;48.722;9.316;2023-07-24T04:23:21;20.47;;;9.97;;
2784;SDS011;57944;48.722;9.316;2023-07-24T04:25:51;13.53;;;8.43;;
2784;SDS011;57944;48.722;9.316;2023-07-24T04:28:24;18.43;;;10.57;;
2784;SDS011;57944;48.722;9.316;2023-07-24T04:30:54;16.40;;;9.00;;
2784;SDS011;57944;48.722;9.316;2023-07-24T04:33:28;14.57;;;9.00;;
2784;SDS011;57944;48.722;9.316;2023-07-24T04:35:59;18.63;;;9.73;;
2784;SDS011;57944;48.722;9.316;2023-07-24T04:38:29;16.50;;;10.57;;
2784;SDS011;57944;48.722;9.316;2023-07-24T04:41:00;17.30;;;9.57;;
2784;SDS011;57944;48.722;9.316;2023-07-24T04:43:33;15.93;;;9.40;;
2784;SDS011;57944;48.722;9.316;2023-07-24T04:46:03;17.80;;;9.00;;
2784;SDS011;57944;48.722;9.316;2023-07-24T04:48:34;17.60;;;10.87;;
2784;SDS011;57944;48.722;9.316;2023-07-24T04:51:04;18.47;;;9.83;;
2784;SDS011;57944;48.722;9.316;2023-07-24T04:53:34;17.07;;;9.33;;
2784;SDS011;57944;48.722;9.316;2023-07-24T04:56:05;15.93;;;8.63;;
2784;SDS011;57944;48.722;9.316;2023-07-24T04:58:37;15.83;;;9.77;;
2784;SDS011;57944;48.722;9.316;2023-07-24T05:01:08;17.40;;;10.23;;
2784;SDS011;57944;48.722;9.316;2023-07-24T05:03:38;14.47;;;9.93;;
2784;SDS011;57944;48.722;9.316;2023-07-24T05:06:08;20.37;;;9.60;;
2784;SDS011;57944;48.722;9.316;2023-07-24T05:08:39;15.50;;;9.73;;
2784;SDS011;57944;48.722;9.316;2023-07-24T05:11:09;13.60;;;8.90;;
2784;SDS011;57944;48.722;9.316;2023-07-24T05:13:42;17.20;;;9.20;;
2784;SDS011;57944;48.722;9.316;2023-07-24T05:16:12;15.57;;;9.03;;
2784;SDS011;57944;48.722;9.316;2023-07-24T05:18:42;15.33;;;9.30;;
2784;SDS011;57944;48.722;9.316;2023-07-24T05:21:13;16.17;;;9.67;;
2784;SDS011;57944;48.722;9.316;2023-07-24T05:23:43;18.10;;;9.93;;
2784;SDS011;57944;48.722;9.316;2023-07-24T05:26:13;15.57;;;9.70;;
2784;SDS011;57944;48.722;9.316;2023-07-24T05:28:46;18.83;;;9.17;;
2784;SDS011;57944;48.722;9.316;2023-07-24T05:31:16;15.60;;;9.27;;
2784;SDS011;57944;48.722;9.316;2023-07-24T05:33:47;18.30;;;10.83;;
2784;SDS011;57944;48.722;9.316;2023-07-24T05:36:17;21.90;;;9.83;;
2784;SDS011;57944;48.722;9.316;2023-07-24T05:38:51;14.00;;;9.60;;
2784;SDS011;57944;48.722;9.316;2023-07-24T05:41:23;15.00;;;9.00;;
2784;SDS011;57944;48.722;9.316;2023-07-24T05:43:55;15.37;;;9.57;;
2784;SDS011;57944;48.722;9.316;2023-07-24T05:46:26;17.90;;;8.97;;
2784;SDS011;57944;48.722;9.316;2023-07-24T05:48:57;17.63;;;10.60;;
2784;SDS011;57944;48.722;9.316;2023-07-24T05:51:28;17.00;;;11.03;;
2784;SDS011;57944;48.722;9.316;2023-07-24T05:53:58;17.13;;;10.60;;
2784;SDS011;57944;48.722;9.316;2023-07-24T05:56:28;13.93;;;8.60;;
2784;SDS011;57944;48.722;9.316;2023-07-24T05:59:01;18.10;;;10.63;;
2784;SDS011;57944;48.722;9.316;2023-07-24T06:01:32;17.40;;;10.30;;
2784;SDS011;57944;48.722;9.316;2023-07-24T06:04:02;17.57;;;10.10;;
2784;SDS011;57944;48.722;9.316;2023-07-24T06:06:34;18.37;;;10.77;;
2784;SDS011;57944;48.722;9.316;2023-07-24T06:09:04;18.93;;;9.90;;
2784;SDS011;57944;48.722;9.316;2023-07-24T06:11:34;13.93;;;8.70;;
2784;SDS011;57944;48.722;9.316;2023-07-24T06:14:07;16.43;;;10.43;;
2784;SDS011;57944;48.722;9.316;2023-07-24T06:16:38;16.17;;;9.60;;
2784;SDS011;57944;48.722;9.316;2023-07-24T06:19:08;18.07;;;9.53;;
2784;SDS011;57944;48.722;9.316;2023-07-24T06:21:38;17.60;;;9.50;;
2784;SDS011;57944;48.722;9.316;2023-07-24T06:24:08;15.37;;;9.03;;
2784;SDS011;57944;48.722;9.316;2023-07-24T06:26:39;18.20;;;10.30;;
2784;SDS011;57944;48.722;9.316;2023-07-24T06:29:12;17.70;;;9.70;;
2784;SDS011;57944;48.722;9.316;2023-07-24T06:31:43;14.03;;;9.30;;
2784;SDS011;57944;48.722;9.316;2023-07-24T06:34:13;15.60;;;9.13;;
2784;SDS011;57944;48.722;9.316;2023-07-24T06:36:44;16.83;;;9.73;;
2784;SDS011;57944;48.722;9.316;2023-07-24T06:39:14;17.30;;;10.37;;
2784;SDS011;57944;48.722;9.316;2023-07-24T06:41:44;20.73;;;11.07;;
2784;SDS011;57944;48.722;9.316;2023-07-24T06:44:17;16.67;;;10.20;;
2784;SDS011;57944;48.722;9.316;2023-07-24T06:46:47;16.10;;;10.10;;
2784;SDS011;57944;48.722;9.316;2023-07-24T06:49:18;17.17;;;10.00;;
2784;SDS011;57944;48.722;9.316;2023-07-24T06:51:48;15.03;;;9.50;;
2784;SDS011;57944;48.722;9.316;2023-07-24T06:54:18;14.67;;;9.20;;
2784;SDS011;57944;48.722;9.316;2023-07-24T06:56:49;18.70;;;9.40;;
2784;SDS011;57944;48.722;9.316;2023-07-24T06:59:21;15.43;;;9.20;;
2784;SDS011;57944;48.722;9.316;2023-07-24T07:01:52;16.17;;;9.97;;
2784;SDS011;57944;48.722;9.316;2023-07-24T07:04:22;33.53;;;11.70;;
2784;SDS011;57944;48.722;9.316;2023-07-24T07:06:53;14.97;;;9.60;;
2784;SDS011;57944;48.722;9.316;2023-07-24T07:09:23;13.53;;;9.20;;
2784;SDS011;57944;48.722;9.316;2023-07-24T07:11:54;12.30;;;8.80;;
2784;SDS011;57944;48.722;9.316;2023-07-24T07:14:27;15.10;;;8.50;;
2784;SDS011;57944;48.722;9.316;2023-07-24T07:16:57;14.70;;;8.33;;
2784;SDS011;57944;48.722;9.316;2023-07-24T07:19:27;15.83;;;9.40;;
2784;SDS011;57944;48.722;9.316;2023-07-24T07:21:58;19.80;;;10.13;;
2784;SDS011;57944;48.722;9.316;2023-07-24T07:24:28;15.60;;;9.60;;
2784;SDS011;57944;48.722;9.316;2023-07-24T07:26:58;17.10;;;9.87;;
2784;SDS011;57944;48.722;9.316;2023-07-24T07:29:31;12.77;;;8.63;;
2784;SDS011;57944;48.722;9.316;2023-07-24T07:32:01;17.33;;;10.70;;
2784;SDS011;57944;48.722;9.316;2023-07-24T07:34:32;16.80;;;10.37;;
2784;SDS011;57944;48.722;9.316;2023-07-24T07:37:05;22.37;;;10.43;;
2784;SDS011;57944;48.722;9.316;2023-07-24T07:39:35;18.50;;;10.17;;
2784;SDS011;57944;48.722;9.316;2023-07-24T07:42:06;19.17;;;8.33;;
2784;SDS011;57944;48.722;9.316;2023-07-24T07:44:46;18.40;;;10.10;;
2784;SDS011;57944;48.722;9.316;2023-07-24T07:47:17;14.97;;;9.20;;
2784;SDS011;57944;48.722;9.316;2023-07-24T07:49:47;15.30;;;9.50;;
2784;SDS011;57944;48.722;9.316;2023-07-24T07:52:18;16.60;;;10.57;;
2784;SDS011;57944;48.722;9.316;2023-07-24T07:54:49;15.43;;;8.67;;
2784;SDS011;57944;48.722;9.316;2023-07-24T07:57:19;16.30;;;9.50;;
2784;SDS011;57944;48.722;9.316;2023-07-24T07:59:52;11.90;;;8.80;;
2784;SDS011;57944;48.722;9.316;2023-07-24T08:02:22;20.83;;;11.43;;
2784;SDS011;57944;48.722;9.316;2023-07-24T08:04:53;15.50;;;9.77;;
2784;SDS011;57944;48.722;9.316;2023-07-24T08:07:30;16.63;;;9.60;;
2784;SDS011;57944;48.722;9.316;2023-07-24T08:10:00;19.03;;;10.13;;
2784;SDS011;57944;48.722;9.316;2023-07-24T08:12:32;17.07;;;10.30;;
2784;SDS011;57944;48.722;9.316;2023-07-24T08:15:06;15.47;;;9.27;;
2784;SDS011;57944;48.722;9.316;2023-07-24T08:17:38;17.70;;;9.37;;
2784;SDS011;57944;48.722;9.316;2023-07-24T08:20:09;14.50;;;10.07;;
2784;SDS011;57944;48.722;9.316;2023-07-24T08:22:40;18.43;;;10.70;;
2784;SDS011;57944;48.722;9.316;2023-07-24T08:25:10;15.33;;;10.30;;
2784;SDS011;57944;48.722;9.316;2023-07-24T08:27:40;13.87;;;8.20;;
2784;SDS011;57944;48.722;9.316;2023-07-24T08:30:33;19.40;;;10.23;;
2784;SDS011;57944;48.722;9.316;2023-07-24T08:33:04;15.33;;;9.27;;
2784;SDS011;57944;48.722;9.316;2023-07-24T08:35:34;17.47;;;9.70;;
2784;SDS011;57944;48.722;9.316;2023-07-24T08:38:04;15.97;;;10.43;;
2784;SDS011;57944;48.722;9.316;2023-07-24T08:40:35;14.10;;;9.57;;
2784;SDS011;57944;48.722;9.316;2023-07-24T08:43:05;17.43;;;10.67;;
2784;SDS011;57944;48.722;9.316;2023-07-24T08:45:39;13.83;;;9.80;;
2784;SDS011;57944;48.722;9.316;2023-07-24T08:48:09;16.50;;;10.40;;
2784;SDS011;57944;48.722;9.316;2023-07-24T08:50:40;14.30;;;9.30;;
2784;SDS011;57944;48.722;9.316;2023-07-24T08:53:10;17.50;;;10.30;;
2784;SDS011;57944;48.722;9.316;2023-07-24T08:55:44;16.77;;;8.80;;
2784;SDS011;57944;48.722;9.316;2023-07-24T08:58:17;23.00;;;10.37;;
2784;SDS011;57944;48.722;9.316;2023-07-24T09:00:50;20.60;;;10.50;;
2784;SDS011;57944;48.722;9.316;2023-07-24T09:03:21;13.73;;;9.70;;
2784;SDS011;57944;48.722;9.316;2023-07-24T09:05:51;18.13;;;10.87;;
2784;SDS011;57944;48.722;9.316;2023-07-24T09:08:28;18.70;;;11.87;;
2784;SDS011;57944;48.722;9.316;2023-07-24T09:11:00;18.00;;;10.30;;
2784;SDS011;57944;48.722;9.316;2023-07-24T09:13:33;14.13;;;8.90;;
2784;SDS011;57944;48.722;9.316;2023-07-24T09:16:08;14.40;;;9.40;;
2784;SDS011;57944;48.722;9.316;2023-07-24T09:18:38;16.17;;;9.20;;
2784;SDS011;57944;48.722;9.316;2023-07-24T09:21:10;14.40;;;9.27;;
2784;SDS011;57944;48.722;9.316;2023-07-24T09:23:40;13.77;;;9.40;;
2784;SDS011;57944;48.722;9.316;2023-07-24T09:26:11;14.63;;;10.10;;
2784;SDS011;57944;48.722;9.316;2023-07-24T09:28:41;12.70;;;8.40;;
2784;SDS011;57944;48.722;9.316;2023-07-24T09:31:33;14.33;;;8.97;;
2784;SDS011;57944;48.722;9.316;2023-07-24T09:34:13;10.90;;;7.73;;
2784;SDS011;57944;48.722;9.316;2023-07-24T09:36:45;16.93;;;8.17;;
2784;SDS011;57944;48.722;9.316;2023-07-24T09:39:15;11.90;;;8.00;;
2784;SDS011;57944;48.722;9.316;2023-07-24T09:42:02;14.23;;;8.17;;
2784;SDS011;57944;48.722;9.316;2023-07-24T09:44:33;16.63;;;7.60;;
2784;SDS011;57944;48.722;9.316;2023-07-24T09:47:06;17.23;;;8.90;;
2784;SDS011;57944;48.722;9.316;2023-07-24T09:49:57;13.70;;;8.93;;
2784;SDS011;57944;48.722;9.316;2023-07-24T09:52:29;10.07;;;7.83;;
2784;SDS011;57944;48.722;9.316;2023-07-24T09:55:09;12.53;;;8.17;;
2784;SDS011;57944;48.722;9.316;2023-07-24T09:57:44;17.57;;;7.70;;
2784;SDS011;57944;48.722;9.316;2023-07-24T10:00:17;10.70;;;8.43;;
2784;SDS011;57944;48.722;9.316;2023-07-24T10:02:50;17.40;;;8.70;;
2784;SDS011;57944;48.722;9.316;2023-07-24T10:05:21;14.23;;;8.17;;
2784;SDS011;57944;48.722;9.316;2023-07-24T10:07:52;17.20;;;10.77;;
2784;SDS011;57944;48.722;9.316;2023-07-24T10:10:23;12.83;;;7.93;;
2784;SDS011;57944;48.722;9.316;2023-07-24T10:12:56;14.97;;;9.20;;
2784;SDS011;57944;48.722;9.316;2023-07-24T10:15:27;14.50;;;8.30;;
2784;SDS011;57944;48.722;9.316;2023-07-24T10:18:05;18.50;;;8.97;;
2784;SDS011;57944;48.722;9.316;2023-07-24T10:20:39;11.70;;;8.00;;
2784;SDS011;57944;48.722;9.316;2023-07-24T10:23:11;12.93;;;7.60;;
2784;SDS011;57944;48.722;9.316;2023-07-24T10:25:50;12.30;;;8.27;;
2784;SDS011;57944;48.722;9.316;2023-07-24T10:28:30;15.97;;;9.73;;
2784;SDS011;57944;48.722;9.316;2023-07-24T10:31:18;14.03;;;8.03;;
2784;SDS011;57944;48.722;9.316;2023-07-24T10:34:03;15.70;;;9.20;;
2784;SDS011;57944;48.722;9.316;2023-07-24T10:36:35;17.97;;;11.10;;
2784;SDS011;57944;48.722;9.316;2023-07-24T10:39:13;16.90;;;9.53;;
2784;SDS011;57944;48.722;9.316;2023-07-24T10:41:45;17.00;;;10.83;;
2784;SDS011;57944;48.722;9.316;2023-07-24T10:44:15;17.27;;;11.40;;
2784;SDS011;57944;48.722;9.316;2023-07-24T10:46:46;18.40;;;9.90;;
2784;SDS011;57944;48.722;9.316;2023-07-24T10:49:21;19.90;;;9.83;;
2784;SDS011;57944;48.722;9.316;2023-07-24T10:51:54;19.30;;;10.03;;
2784;SDS011;57944;48.722;9.316;2023-07-24T10:54:25;39.63;;;16.60;;
2784;SDS011;57944;48.722;9.316;2023-07-24T10:56:59;15.30;;;10.37;;
2784;SDS011;57944;48.722;9.316;2023-07-24T10:59:36;21.37;;;10.20;;
2784;SDS011;57944;48.722;9.316;2023-07-24T11:02:08;19.27;;;11.40;;
2784;SDS011;57944;48.722;9.316;2023-07-24T11:04:42;16.10;;;10.03;;
2784;SDS011;57944;48.722;9.316;2023-07-24T11:07:12;19.27;;;8.57;;
2784;SDS011;57944;48.722;9.316;2023-07-24T11:09:43;18.23;;;9.80;;
2784;SDS011;57944;48.722;9.316;2023-07-24T11:12:15;15.77;;;9.77;;
2784;SDS011;57944;48.722;9.316;2023-07-24T11:14:49;15.43;;;9.50;;
2784;SDS011;57944;48.722;9.316;2023-07-24T11:17:20;14.53;;;9.50;;
2784;SDS011;57944;48.722;9.316;2023-07-24T11:19:54;12.47;;;8.70;;
2784;SDS011;57944;48.722;9.316;2023-07-24T11:22:37;13.80;;;9.97;;
2784;SDS011;57944;48.722;9.316;2023-07-24T11:25:09;13.70;;;9.07;;
2784;SDS011;57944;48.722;9.316;2023-07-24T11:27:41;13.37;;;8.20;;
2784;SDS011;57944;48.722;9.316;2023-07-24T11:30:18;13.67;;;9.30;;
2784;SDS011;57944;48.722;9.316;2023-07-24T11:32:50;15.17;;;8.87;;
2784;SDS011;57944;48.722;9.316;2023-07-24T11:35:24;12.60;;;9.03;;
2784;SDS011;57944;48.722;9.316;2023-07-24T11:37:55;13.67;;;8.67;;
2784;SDS011;57944;48.722;9.316;2023-07-24T11:40:32;14.40;;;9.13;;
2784;SDS011;57944;48.722;9.316;2023-07-24T11:43:05;14.50;;;9.83;;
2784;SDS011;57944;48.722;9.316;2023-07-24T11:45:45;12.80;;;7.80;;
2784;SDS011;57944;48.722;9.316;2023-07-24T11:48:19;12.47;;;8.67;;
2784;SDS011;57944;48.722;9.316;2023-07-24T11:50:54;15.60;;;9.60;;
2784;SDS011;57944;48.722;9.316;2023-07-24T11:53:28;14.53;;;8.90;;
2784;SDS011;57944;48.722;9.316;2023-07-24T11:56:00;19.40;;;9.30;;
2784;SDS011;57944;48.722;9.316;2023-07-24T11:58:31;12.83;;;8.10;;
2784;SDS011;57944;48.722;9.316;2023-07-24T12:01:01;12.03;;;8.60;;
2784;SDS011;57944;48.722;9.316;2023-07-24T12:03:32;14.83;;;8.80;;
2784;SDS011;57944;48.722;9.316;2023-07-24T12:06:06;12.10;;;8.57;;
2784;SDS011;57944;48.722;9.316;2023-07-24T12:08:46;12.50;;;8.50;;
2784;SDS011;57944;48.722;9.316;2023-07-24T12:11:16;17.20;;;8.73;;
2784;SDS011;57944;48.722;9.316;2023-07-24T12:13:47;15.20;;;8.67;;
2784;SDS011;57944;48.722;9.316;2023-07-24T12:16:20;12.93;;;8.27;;
2784;SDS011;57944;48.722;9.316;2023-07-24T12:18:50;15.33;;;7.63;;
2784;SDS011;57944;48.722;9.316;2023-07-24T12:21:23;13.07;;;8.40;;
2784;SDS011;57944;48.722;9.316;2023-07-24T12:23:54;9.53;;;7.33;;
2784;SDS011;57944;48.722;9.316;2023-07-24T12:26:24;12.57;;;8.73;;
2784;SDS011;57944;48.722;9.316;2023-07-24T12:28:55;13.70;;;7.20;;
2784;SDS011;57944;48.722;9.316;2023-07-24T12:31:27;10.63;;;7.30;;
2784;SDS011;57944;48.722;9.316;2023-07-24T12:33:58;10.80;;;7.33;;
2784;SDS011;57944;48.722;9.316;2023-07-24T12:36:31;12.50;;;7.33;;
2784;SDS011;57944;48.722;9.316;2023-07-24T12:39:01;11.93;;;7.17;;
2784;SDS011;57944;48.722;9.316;2023-07-24T12:41:31;11.57;;;6.97;;
2784;SDS011;57944;48.722;9.316;2023-07-24T12:44:02;11.50;;;7.57;;
2784;SDS011;57944;48.722;9.316;2023-07-24T12:46:32;13.20;;;8.00;;
2784;SDS011;57944;48.722;9.316;2023-07-24T12:49:03;11.10;;;7.47;;
2784;SDS011;57944;48.722;9.316;2023-07-24T12:51:36;12.13;;;8.27;;
2784;SDS011;57944;48.722;9.316;2023-07-24T12:54:06;9.50;;;7.00;;
2784;SDS011;57944;48.722;9.316;2023-07-24T12:56:56;11.23;;;7.93;;
2784;SDS011;57944;48.722;9.316;2023-07-24T12:59:26;14.33;;;7.40;;
2784;SDS011;57944;48.722;9.316;2023-07-24T13:01:57;10.10;;;7.57;;
2784;SDS011;57944;48.722;9.316;2023-07-24T13:04:27;11.30;;;7.33;;
2784;SDS011;57944;48.722;9.316;2023-07-24T13:07:00;14.23;;;8.30;;
2784;SDS011;57944;48.722;9.316;2023-07-24T13:09:31;9.73;;;7.03;;
2784;SDS011;57944;48.722;9.316;2023-07-24T13:12:01;10.10;;;7.40;;
2784;SDS011;57944;48.722;9.316;2023-07-24T13:14:32;8.73;;;6.10;;
2784;SDS011;57944;48.722;9.316;2023-07-24T13:17:05;10.83;;;6.80;;
2784;SDS011;57944;48.722;9.316;2023-07-24T13:19:35;9.87;;;6.50;;
2784;SDS011;57944;48.722;9.316;2023-07-24T13:22:08;9.03;;;7.10;;
2784;SDS011;57944;48.722;9.316;2023-07-24T13:24:38;9.83;;;5.53;;
2784;SDS011;57944;48.722;9.316;2023-07-24T13:27:09;9.17;;;6.03;;
2784;SDS011;57944;48.722;9.316;2023-07-24T13:29:39;12.07;;;6.70;;
2784;SDS011;57944;48.722;9.316;2023-07-24T13:32:09;10.80;;;6.57;;
2784;SDS011;57944;48.722;9.316;2023-07-24T13:34:40;9.90;;;6.07;;
2784;SDS011;57944;48.722;9.316;2023-07-24T13:37:13;9.33;;;6.70;;
2784;SDS011;57944;48.722;9.316;2023-07-24T13:39:44;10.40;;;6.87;;
2784;SDS011;57944;48.722;9.316;2023-07-24T13:42:14;9.47;;;5.40;;
2784;SDS011;57944;48.722;9.316;2023-07-24T13:44:44;8.90;;;5.90;;
2784;SDS011;57944;48.722;9.316;2023-07-24T13:47:15;11.07;;;6.70;;
2784;SDS011;57944;48.722;9.316;2023-07-24T13:49:45;11.23;;;6.60;;
2784;SDS011;57944;48.722;9.316;2023-07-24T13:52:18;9.70;;;6.63;;
2784;SDS011;57944;48.722;9.316;2023-07-24T13:54:48;7.83;;;5.30;;
2784;SDS011;57944;48.722;9.316;2023-07-24T13:57:18;8.93;;;5.87;;
2784;SDS011;57944;48.722;9.316;2023-07-24T13:59:49;10.23;;;5.37;;
2784;SDS011;57944;48.722;9.316;2023-07-24T14:02:19;11.83;;;6.47;;
2784;SDS011;57944;48.722;9.316;2023-07-24T14:04:49;11.83;;;5.63;;
2784;SDS011;57944;48.722;9.316;2023-07-24T14:07:22;9.00;;;5.70;;
2784;SDS011;57944;48.722;9.316;2023-07-24T14:09:53;9.10;;;5.63;;
2784;SDS011;57944;48.722;9.316;2023-07-24T14:12:23;8.73;;;5.63;;
2784;SDS011;57944;48.722;9.316;2023-07-24T14:14:53;11.13;;;4.73;;
2784;SDS011;57944;48.722;9.316;2023-07-24T14:17:23;16.60;;;6.90;;
2784;SDS011;57944;48.722;9.316;2023-07-24T14:19:54;10.10;;;5.70;;
2784;SDS011;57944;48.722;9.316;2023-07-24T14:22:27;9.50;;;5.73;;
2784;SDS011;57944;48.722;9.316;2023-07-24T14:24:57;7.93;;;5.33;;
2784;SDS011;57944;48.722;9.316;2023-07-24T14:27:28;10.27;;;6.10;;
2784;SDS011;57944;48.722;9.316;2023-07-24T14:29:58;7.10;;;5.07;;
2784;SDS011;57944;48.722;9.316;2023-07-24T14:32:28;7.90;;;5.30;;
2784;SDS011;57944;48.722;9.316;2023-07-24T14:34:59;9.07;;;5.10;;
2784;SDS011;57944;48.722;9.316;2023-07-24T14:37:32;8.20;;;5.20;;
2784;SDS011;57944;48.722;9.316;2023-07-24T14:40:02;7.17;;;5.10;;
2784;SDS011;57944;48.722;9.316;2023-07-24T14:42:34;8.40;;;5.07;;
2784;SDS011;57944;48.722;9.316;2023-07-24T14:45:04;8.93;;;5.07;;
2784;SDS011;57944;48.722;9.316;2023-07-24T14:47:36;11.10;;;5.00;;
2784;SDS011;57944;48.722;9.316;2023-07-24T14:50:07;7.63;;;4.57;;
2784;SDS011;57944;48.722;9.316;2023-07-24T14:52:41;6.70;;;4.47;;
2784;SDS011;57944;48.722;9.316;2023-07-24T14:55:12;7.47;;;4.50;;
2784;SDS011;57944;48.722;9.316;2023-07-24T14:57:44;12.20;;;5.30;;
2784;SDS011;57944;48.722;9.316;2023-07-24T15:00:14;7.83;;;4.57;;
2784;SDS011;57944;48.722;9.316;2023-07-24T15:02:45;6.00;;;4.03;;
2784;SDS011;57944;48.722;9.316;2023-07-24T15:05:16;10.37;;;4.90;;
2784;SDS011;57944;48.722;9.316;2023-07-24T15:07:49;7.23;;;4.87;;
2784;SDS011;57944;48.722;9.316;2023-07-24T15:10:19;5.27;;;3.90;;
2784;SDS011;57944;48.722;9.316;2023-07-24T15:12:50;7.00;;;4.57;;